Time;durP1;ratioP1;P1;durP2;ratioP2;P2;SDS_P1;SDS_P2;PMS_P1;PMS_P2;Temp;Humidity;BMP_temperature;BMP_pressure;BME280_temperature;BME280_humidity;BME280_pressure;Samples;Min_cycle;Max_cycle;Signal;HPM_P1;HPM_P2
2023/01/26 00:01:05;;;;;;;23.45;12.48;;;2.20;99.90;;;;;;5055265;28;20045;-73
2023/01/26 00:03:31;;;;;;;25.95;13.63;;;2.20;99.90;;;;;;5055475;28;20033;-74
2023/01/26 00:06:01;;;;;;;21.90;12.88;;;2.20;99.90;;;;;;5055232;28;20024;-74
2023/01/26 00:08:27;;;;;;;24.05;14.43;;;2.10;99.90;;;;;;5055523;28;20418;-74
2023/01/26 00:10:53;;;;;;;21.42;12.73;;;2.20;99.90;;;;;;5044469;28;20025;-74
2023/01/26 00:13:19;;;;;;;21.17;12.32;;;2.20;99.90;;;;;;5067992;28;20041;-74
2023/01/26 00:15:45;;;;;;;26.27;13.57;;;2.20;99.90;;;;;;5059746;28;20108;-74
2023/01/26 00:18:11;;;;;;;23.98;12.85;;;2.10;99.90;;;;;;5057968;28;20017;-74
2023/01/26 00:20:36;;;;;;;22.10;13.05;;;2.20;99.90;;;;;;5056358;28;20055;-74
2023/01/26 00:23:02;;;;;;;19.85;11.75;;;2.20;99.90;;;;;;5054767;28;20096;-73
2023/01/26 00:25:28;;;;;;;25.05;12.88;;;2.20;99.90;;;;;;5055651;28;20369;-73
2023/01/26 00:27:56;;;;;;;23.35;14.48;;;2.20;99.90;;;;;;5054314;28;20060;-73
2023/01/26 00:30:22;;;;;;;23.17;12.48;;;2.20;99.90;;;;;;5054851;28;20028;-74
2023/01/26 00:32:48;;;;;;;23.98;13.95;;;2.20;99.90;;;;;;5054941;28;20028;-75
2023/01/26 00:35:15;;;;;;;27.75;15.45;;;2.20;99.90;;;;;;5070092;28;20033;-74
2023/01/26 00:37:41;;;;;;;28.20;14.30;;;2.20;99.90;;;;;;5070009;28;20132;-73
2023/01/26 00:40:09;;;;;;;22.25;12.50;;;2.20;99.90;;;;;;5056728;28;20025;-74
2023/01/26 00:42:35;;;;;;;26.73;13.60;;;2.20;99.90;;;;;;5069934;28;20024;-74
2023/01/26 00:45:01;;;;;;;21.70;13.15;;;2.20;99.90;;;;;;5060604;28;20029;-73
2023/01/26 00:47:27;;;;;;;27.80;15.75;;;2.20;99.90;;;;;;5059765;28;20065;-73
2023/01/26 00:49:53;;;;;;;24.48;14.20;;;2.20;99.90;;;;;;5054558;28;20032;-73
2023/01/26 00:52:19;;;;;;;26.48;14.32;;;2.10;99.90;;;;;;5053858;28;20465;-74
2023/01/26 00:54:44;;;;;;;25.05;14.80;;;2.10;99.90;;;;;;5053173;28;20041;-73
2023/01/26 00:57:13;;;;;;;23.98;13.23;;;2.10;99.90;;;;;;5058426;28;20400;-74
2023/01/26 00:59:40;;;;;;;30.85;19.25;;;2.10;99.90;;;;;;5058461;28;20029;-74
2023/01/26 01:02:06;;;;;;;28.38;15.48;;;2.10;99.90;;;;;;5054438;28;20502;-73
2023/01/26 01:04:32;;;;;;;30.70;17.60;;;2.10;99.90;;;;;;5054238;28;20035;-74
2023/01/26 01:06:59;;;;;;;23.00;14.95;;;2.10;99.90;;;;;;5069594;28;20033;-73
2023/01/26 01:09:25;;;;;;;29.55;14.50;;;2.10;99.90;;;;;;5053821;28;20028;-74
2023/01/26 01:11:51;;;;;;;23.58;13.10;;;2.10;99.90;;;;;;5068683;28;20399;-74
2023/01/26 01:14:17;;;;;;;20.85;11.60;;;2.20;99.90;;;;;;5069100;28;20067;-74
2023/01/26 01:16:45;;;;;;;21.25;11.43;;;2.20;99.90;;;;;;5068769;28;20476;-74
2023/01/26 01:19:14;;;;;;;27.27;14.80;;;2.20;99.90;;;;;;5069012;28;20052;-74
2023/01/26 01:21:41;;;;;;;26.23;13.57;;;2.10;99.90;;;;;;5053026;28;20123;-73
2023/01/26 01:24:10;;;;;;;29.20;13.80;;;2.20;99.90;;;;;;5053618;28;20017;-74
2023/01/26 01:26:37;;;;;;;24.40;12.20;;;2.20;99.90;;;;;;5052564;28;20033;-74
2023/01/26 01:29:03;;;;;;;26.85;13.95;;;2.10;99.90;;;;;;5069077;28;20041;-74
2023/01/26 01:31:29;;;;;;;25.15;12.68;;;2.10;99.90;;;;;;5053733;28;20017;-74
2023/01/26 01:33:56;;;;;;;26.13;11.73;;;2.20;99.90;;;;;;5050477;28;20025;-74
2023/01/26 01:36:22;;;;;;;20.60;10.82;;;2.20;99.90;;;;;;5050629;28;20029;-74
2023/01/26 01:38:50;;;;;;;25.17;12.88;;;2.10;99.90;;;;;;5048936;28;20029;-74
2023/01/26 01:41:18;;;;;;;18.83;10.35;;;2.10;99.90;;;;;;5046504;28;20045;-75
2023/01/26 01:43:44;;;;;;;19.60;10.85;;;2.10;99.90;;;;;;5048120;28;20021;-74
2023/01/26 01:46:31;;;;;;;18.85;10.50;;;2.10;99.90;;;;;;5048729;28;20108;-74
2023/01/26 01:49:26;;;;;;;20.33;8.77;;;2.10;99.90;;;;;;5047406;28;20032;-74
2023/01/26 01:52:07;;;;;;;21.20;11.18;;;2.10;99.90;;;;;;4995633;28;20613;-74
2023/01/26 01:55:09;;;;;;;20.55;11.02;;;2.10;99.90;;;;;;4995594;28;20437;-74
2023/01/26 01:57:59;;;;;;;20.23;10.63;;;2.10;99.90;;;;;;4932687;29;20063;-74
2023/01/26 02:00:26;;;;;;;18.60;9.63;;;2.20;99.90;;;;;;4922422;29;20039;-74
2023/01/26 02:03:18;;;;;;;17.00;8.80;;;2.10;99.90;;;;;;4918056;29;20039;-74
2023/01/26 02:06:05;;;;;;;19.20;10.32;;;2.10;99.90;;;;;;4933824;29;20063;-74
2023/01/26 02:08:37;;;;;;;20.63;10.32;;;2.10;99.90;;;;;;4933800;29;20090;-74
2023/01/26 02:11:19;;;;;;;18.13;8.55;;;2.10;99.90;;;;;;4933423;29;20028;-73
2023/01/26 02:13:47;;;;;;;18.65;9.50;;;2.10;99.90;;;;;;4925131;29;20127;-74
2023/01/26 02:16:14;;;;;;;18.20;8.50;;;2.20;99.90;;;;;;4933767;29;20058;-74
2023/01/26 02:18:40;;;;;;;16.77;9.63;;;2.20;99.90;;;;;;4933601;29;20130;-73
2023/01/26 02:21:10;;;;;;;21.05;10.90;;;2.20;99.90;;;;;;4933894;29;20048;-73
2023/01/26 02:23:48;;;;;;;20.77;10.00;;;2.10;99.90;;;;;;4933548;29;20067;-73
2023/01/26 02:26:19;;;;;;;18.38;9.50;;;2.10;99.90;;;;;;4933671;29;20031;-72
2023/01/26 02:28:46;;;;;;;18.05;9.20;;;2.10;99.90;;;;;;4977798;28;20041;-73
2023/01/26 02:31:13;;;;;;;17.75;9.50;;;2.10;99.90;;;;;;5025893;28;20041;-74
2023/01/26 02:33:39;;;;;;;15.95;7.85;;;2.10;99.90;;;;;;5051492;28;20032;-73
2023/01/26 02:36:09;;;;;;;15.98;8.43;;;2.10;99.90;;;;;;5051649;28;20065;-74
2023/01/26 02:38:42;;;;;;;21.13;9.40;;;2.00;99.90;;;;;;5051256;28;20559;-73
2023/01/26 02:41:12;;;;;;;14.35;8.43;;;2.10;99.90;;;;;;5051692;28;20075;-73
2023/01/26 02:43:38;;;;;;;15.50;7.80;;;2.10;99.90;;;;;;5051343;28;20055;-73
2023/01/26 02:46:04;;;;;;;17.50;8.23;;;2.10;99.90;;;;;;5051436;28;20029;-73
2023/01/26 02:51:17;;;;;;;18.05;8.40;;;2.10;99.90;;;;;;5068169;28;20037;-73
2023/01/26 02:53:45;;;;;;;19.48;9.60;;;2.10;99.90;;;;;;5067795;28;20427;-73
2023/01/26 02:56:11;;;;;;;18.33;8.15;;;2.10;99.90;;;;;;5051349;28;20036;-73
2023/01/26 02:58:37;;;;;;;14.18;7.53;;;2.10;99.90;;;;;;5067737;28;20036;-73
2023/01/26 03:01:03;;;;;;;12.63;6.80;;;2.20;99.90;;;;;;5050838;28;20033;-74
2023/01/26 03:03:40;;;;;;;21.50;9.07;;;2.20;99.90;;;;;;5054631;28;20025;-74
2023/01/26 03:06:08;;;;;;;13.52;6.53;;;2.10;99.90;;;;;;5056543;28;20024;-74
2023/01/26 03:08:35;;;;;;;22.48;11.25;;;2.10;99.90;;;;;;5071787;28;20116;-73
2023/01/26 03:11:02;;;;;;;24.50;12.32;;;2.10;99.90;;;;;;5071594;28;20414;-73
2023/01/26 03:13:28;;;;;;;20.02;8.80;;;2.00;99.90;;;;;;5071798;28;20096;-74
2023/01/26 03:16:01;;;;;;;20.10;9.30;;;2.10;99.90;;;;;;5054983;28;20048;-74
2023/01/26 03:27:26;;;;;;;19.88;9.05;;;2.10;99.90;;;;;;4994720;28;20038;-73
2023/01/26 03:29:55;;;;;;;15.23;7.40;;;2.10;99.90;;;;;;4968313;28;20389;-73
2023/01/26 03:32:21;;;;;;;22.98;12.75;;;2.10;99.90;;;;;;4994354;28;20476;-74
2023/01/26 03:34:47;;;;;;;15.60;8.55;;;2.00;99.90;;;;;;4994623;28;20553;-73
2023/01/26 03:37:14;;;;;;;14.52;7.30;;;2.00;99.90;;;;;;4994355;28;20034;-74
2023/01/26 03:56:20;;;;;;;14.82;7.10;;;2.00;99.90;;;;;;5000138;28;20042;-74
2023/01/26 03:58:54;;;;;;;17.05;7.20;;;2.00;99.90;;;;;;5048223;28;20083;-74
2023/01/26 04:01:26;;;;;;;15.18;6.72;;;1.90;99.90;;;;;;5070131;28;20036;-74
2023/01/26 04:09:26;;;;;;;12.27;6.28;;;2.00;99.90;;;;;;5070673;28;20120;-74
2023/01/26 04:11:53;;;;;;;11.77;6.88;;;1.90;99.90;;;;;;5053842;28;20063;-74
2023/01/26 04:22:46;;;;;;;13.23;6.25;;;2.00;99.90;;;;;;5070283;28;20060;-74
2023/01/26 04:25:17;;;;;;;11.30;5.78;;;1.90;99.90;;;;;;5053560;28;20025;-74
2023/01/26 04:27:44;;;;;;;13.10;6.20;;;2.00;99.90;;;;;;5054892;28;20472;-74
2023/01/26 04:30:13;;;;;;;12.88;7.45;;;2.00;99.90;;;;;;5053276;28;20037;-74
2023/01/26 04:32:39;;;;;;;21.08;11.07;;;1.90;99.90;;;;;;5054767;28;20358;-74
2023/01/26 04:35:08;;;;;;;14.98;8.05;;;2.00;99.90;;;;;;5068648;28;20043;-74
2023/01/26 04:37:37;;;;;;;16.48;7.82;;;2.00;99.90;;;;;;5070289;28;20028;-74
2023/01/26 04:40:04;;;;;;;16.40;7.97;;;2.00;99.90;;;;;;5070314;28;20037;-73
2023/01/26 04:42:32;;;;;;;16.95;8.68;;;2.00;99.90;;;;;;5053261;28;20087;-73
2023/01/26 04:45:00;;;;;;;21.70;10.38;;;2.00;99.90;;;;;;5068369;28;20379;-74
2023/01/26 04:47:27;;;;;;;18.08;7.68;;;2.00;99.90;;;;;;5069959;28;20399;-74
2023/01/26 04:49:53;;;;;;;16.33;7.50;;;2.00;99.90;;;;;;5053065;28;20120;-74
2023/01/26 04:52:21;;;;;;;15.07;6.35;;;2.10;99.90;;;;;;5054571;28;20062;-74
2023/01/26 04:54:48;;;;;;;13.65;6.57;;;2.00;99.90;;;;;;5054274;28;20418;-74
2023/01/26 04:57:13;;;;;;;13.20;6.72;;;2.00;99.90;;;;;;5052962;28;20048;-73
2023/01/26 04:59:44;;;;;;;19.23;9.85;;;2.00;99.90;;;;;;5059763;28;20087;-73
2023/01/26 05:02:10;;;;;;;12.57;6.35;;;2.10;99.90;;;;;;5040227;28;20041;-74
2023/01/26 05:04:36;;;;;;;16.33;10.07;;;2.00;99.90;;;;;;5047678;28;20017;-73
2023/01/26 05:07:03;;;;;;;17.50;8.98;;;2.00;99.90;;;;;;5051076;28;20041;-73
2023/01/26 05:09:29;;;;;;;16.58;7.85;;;2.00;99.90;;;;;;5069429;28;20388;-73
2023/01/26 05:12:33;;;;;;;14.35;8.32;;;2.10;99.90;;;;;;5032114;28;20045;-73
2023/01/26 05:15:18;;;;;;;17.42;11.05;;;2.10;99.90;;;;;;5031623;28;20036;-72
2023/01/26 05:18:10;;;;;;;15.27;8.02;;;2.00;99.90;;;;;;5006647;28;20048;-73
2023/01/26 05:20:49;;;;;;;16.40;6.68;;;2.00;99.90;;;;;;5031583;28;20033;-74
2023/01/26 05:23:17;;;;;;;16.17;7.55;;;2.00;99.90;;;;;;5015432;28;20037;-73
2023/01/26 05:26:02;;;;;;;13.75;7.03;;;2.00;99.90;;;;;;5031095;28;20107;-72
2023/01/26 05:28:33;;;;;;;15.77;7.78;;;2.00;99.90;;;;;;5015207;28;20108;-73
2023/01/26 05:30:59;;;;;;;13.57;7.40;;;2.00;99.90;;;;;;5031725;28;20048;-72
2023/01/26 05:33:25;;;;;;;22.73;11.35;;;2.00;99.90;;;;;;5031827;28;20026;-73
2023/01/26 05:35:52;;;;;;;21.58;9.68;;;2.00;99.90;;;;;;5031759;28;20048;-75
2023/01/26 05:38:19;;;;;;;23.00;10.77;;;2.00;99.90;;;;;;5031219;28;20068;-74
2023/01/26 05:40:46;;;;;;;21.55;10.45;;;2.00;99.90;;;;;;5014764;28;20039;-73
2023/01/26 05:43:13;;;;;;;13.10;6.07;;;2.00;99.90;;;;;;5031610;28;20216;-73
2023/01/26 05:46:01;;;;;;;18.90;9.20;;;2.00;99.90;;;;;;5020882;28;20072;-73
2023/01/26 05:48:27;;;;;;;20.23;9.35;;;2.00;99.90;;;;;;5017353;28;20052;-73
2023/01/26 05:50:56;;;;;;;15.90;8.40;;;2.00;99.90;;;;;;5053351;28;20430;-73
2023/01/26 05:53:22;;;;;;;32.72;16.08;;;2.00;99.90;;;;;;5052029;28;20056;-73
2023/01/26 05:55:48;;;;;;;21.48;10.93;;;2.00;99.90;;;;;;5051820;28;20507;-73
2023/01/26 05:58:14;;;;;;;24.48;13.57;;;1.90;99.90;;;;;;5068058;28;20037;-72
2023/01/26 06:00:40;;;;;;;15.32;7.55;;;2.00;99.90;;;;;;5053051;28;20021;-73
2023/01/26 06:03:11;;;;;;;27.33;15.00;;;1.90;99.90;;;;;;5051820;28;20029;-73
2023/01/26 06:05:37;;;;;;;22.45;8.77;;;2.00;99.90;;;;;;5053088;28;20105;-73
2023/01/26 06:08:11;;;;;;;15.40;8.68;;;2.00;99.90;;;;;;5068269;28;20484;-73
2023/01/26 06:10:51;;;;;;;13.63;6.88;;;1.90;99.90;;;;;;5064593;28;20362;-74
2023/01/26 06:13:54;;;;;;;14.90;7.22;;;2.00;99.90;;;;;;4991721;28;20065;-73
2023/01/26 06:16:23;;;;;;;19.38;10.70;;;2.00;99.90;;;;;;4991476;28;20173;-73
2023/01/26 06:18:49;;;;;;;30.73;16.45;;;2.00;99.90;;;;;;4991260;28;20065;-74
2023/01/26 06:21:15;;;;;;;24.23;12.73;;;2.00;99.90;;;;;;4991235;28;20474;-73
2023/01/26 06:23:42;;;;;;;19.00;9.02;;;2.00;99.90;;;;;;4991677;28;20027;-73
2023/01/26 06:26:08;;;;;;;26.17;12.18;;;2.00;99.90;;;;;;4978913;28;20034;-73
2023/01/26 06:28:35;;;;;;;16.85;8.20;;;2.00;99.90;;;;;;4983252;28;20097;-74
2023/01/26 06:31:02;;;;;;;20.80;10.52;;;1.90;99.90;;;;;;4973456;28;20034;-73
2023/01/26 06:33:30;;;;;;;20.83;11.00;;;1.90;99.90;;;;;;4975382;28;20030;-73
2023/01/26 06:36:04;;;;;;;18.75;9.35;;;2.00;99.90;;;;;;4975208;28;20090;-73
2023/01/26 06:38:31;;;;;;;24.17;12.23;;;2.00;99.90;;;;;;4977429;28;20035;-73
2023/01/26 06:41:03;;;;;;;17.13;9.70;;;2.00;99.90;;;;;;4976909;28;20038;-74
2023/01/26 06:43:32;;;;;;;17.65;8.98;;;2.00;99.90;;;;;;4979517;28;20057;-73
2023/01/26 06:46:00;;;;;;;18.25;8.98;;;2.00;99.90;;;;;;5032444;28;20495;-73
2023/01/26 06:48:28;;;;;;;17.75;8.25;;;2.00;99.90;;;;;;5015732;28;20384;-73
2023/01/26 06:51:04;;;;;;;24.60;13.70;;;2.00;99.90;;;;;;5026486;28;20030;-73
2023/01/26 06:53:37;;;;;;;13.95;7.18;;;2.00;99.90;;;;;;5015585;28;20064;-73
2023/01/26 06:56:27;;;;;;;19.20;7.93;;;2.00;99.90;;;;;;5015602;28;20052;-73
2023/01/26 06:58:58;;;;;;;18.00;8.48;;;2.00;99.90;;;;;;5015438;28;20030;-73
2023/01/26 07:01:56;;;;;;;17.92;9.35;;;2.00;99.90;;;;;;4994887;28;20049;-73
2023/01/26 07:04:26;;;;;;;19.20;8.40;;;2.00;99.90;;;;;;4995081;28;20038;-73
2023/01/26 07:06:52;;;;;;;18.17;10.57;;;2.00;99.90;;;;;;4994999;28;20026;-74
2023/01/26 07:09:18;;;;;;;29.63;14.50;;;2.00;99.90;;;;;;4995038;28;20588;-74
2023/01/26 07:11:43;;;;;;;27.13;12.95;;;2.00;99.90;;;;;;4994878;28;20031;-74
2023/01/26 07:14:09;;;;;;;27.98;14.55;;;1.90;99.90;;;;;;4994609;28;20072;-73
2023/01/26 07:16:35;;;;;;;16.63;9.10;;;1.90;99.90;;;;;;4994841;28;20042;-74
2023/01/26 07:19:01;;;;;;;17.95;8.57;;;1.90;99.90;;;;;;5002120;28;20569;-73
2023/01/26 07:21:27;;;;;;;20.92;11.43;;;1.90;99.90;;;;;;5014321;28;20053;-73
2023/01/26 07:23:54;;;;;;;23.92;11.57;;;1.90;99.90;;;;;;5014036;28;20477;-74
2023/01/26 07:26:20;;;;;;;26.25;12.65;;;2.00;99.90;;;;;;5014269;28;20026;-73
2023/01/26 07:28:46;;;;;;;26.45;14.55;;;2.00;99.90;;;;;;5014288;28;20667;-73
2023/01/26 07:31:12;;;;;;;17.20;9.27;;;2.00;99.90;;;;;;5014340;28;20084;-74
2023/01/26 07:33:38;;;;;;;24.42;13.00;;;2.00;99.90;;;;;;5013812;28;20042;-73
2023/01/26 07:36:04;;;;;;;24.17;14.18;;;2.10;99.90;;;;;;5014098;28;20526;-73
2023/01/26 07:38:31;;;;;;;16.83;8.00;;;2.00;99.90;;;;;;5034229;28;20038;-73
2023/01/26 07:40:57;;;;;;;15.27;8.45;;;2.00;99.90;;;;;;5035965;28;20040;-72
2023/01/26 07:43:23;;;;;;;18.17;9.23;;;2.00;99.90;;;;;;5035916;28;20017;-73
2023/01/26 07:45:53;;;;;;;14.50;7.35;;;2.00;99.90;;;;;;5049794;28;20034;-73
2023/01/26 07:48:21;;;;;;;17.95;7.72;;;2.00;99.90;;;;;;5035561;28;20330;-73
2023/01/26 07:50:47;;;;;;;15.30;8.30;;;2.00;99.90;;;;;;5032747;28;20030;-73
2023/01/26 07:53:14;;;;;;;16.48;7.97;;;2.00;99.90;;;;;;5032842;28;20029;-75
2023/01/26 07:55:42;;;;;;;16.27;8.13;;;2.10;99.90;;;;;;5035072;28;20030;-73
2023/01/26 07:58:09;;;;;;;16.83;9.75;;;2.10;99.90;;;;;;5035465;28;20431;-75
2023/01/26 08:00:35;;;;;;;17.58;8.95;;;2.00;99.90;;;;;;5035566;28;20018;-74
2023/01/26 08:03:01;;;;;;;18.10;9.23;;;2.00;99.90;;;;;;5035401;28;20040;-74
2023/01/26 08:05:27;;;;;;;17.35;8.57;;;2.00;99.90;;;;;;5035320;28;20026;-75
2023/01/26 08:07:57;;;;;;;24.33;12.95;;;2.10;99.90;;;;;;5035613;28;20029;-74
2023/01/26 08:10:23;;;;;;;14.68;7.07;;;2.10;99.90;;;;;;5035447;28;20481;-74
2023/01/26 08:12:49;;;;;;;16.20;8.85;;;2.00;99.90;;;;;;5035181;28;20065;-73
2023/01/26 08:15:14;;;;;;;20.30;10.43;;;2.10;99.90;;;;;;5035265;28;20100;-74
2023/01/26 08:17:40;;;;;;;21.60;10.35;;;2.10;99.90;;;;;;5034742;28;20045;-73
2023/01/26 08:20:07;;;;;;;19.08;10.70;;;2.10;99.90;;;;;;5051681;28;20064;-75
2023/01/26 08:22:32;;;;;;;17.50;9.48;;;2.10;99.90;;;;;;5055073;28;20036;-74
2023/01/26 08:24:58;;;;;;;18.58;9.00;;;2.10;99.90;;;;;;5055013;28;20017;-73
2023/01/26 08:27:24;;;;;;;16.58;7.50;;;2.10;99.90;;;;;;5055005;28;20025;-74
2023/01/26 08:29:50;;;;;;;19.55;8.48;;;2.10;99.90;;;;;;5055067;28;20028;-73
2023/01/26 08:32:16;;;;;;;16.42;7.60;;;2.20;99.90;;;;;;5054903;28;20036;-74
2023/01/26 08:34:42;;;;;;;14.77;7.43;;;2.20;99.90;;;;;;5054782;28;20029;-73
2023/01/26 08:37:08;;;;;;;13.02;7.38;;;2.20;99.90;;;;;;5054342;28;20040;-75
2023/01/26 08:39:34;;;;;;;18.08;9.25;;;2.30;99.90;;;;;;5054426;28;20021;-74
2023/01/26 08:41:59;;;;;;;19.20;8.90;;;2.20;99.90;;;;;;5053800;28;20388;-73
2023/01/26 08:44:25;;;;;;;12.70;6.13;;;2.20;99.90;;;;;;5054105;28;20017;-75
2023/01/26 08:46:51;;;;;;;13.07;5.60;;;2.20;99.90;;;;;;5052711;28;20443;-74
2023/01/26 08:49:17;;;;;;;14.35;7.55;;;2.20;99.90;;;;;;5054543;28;20083;-74
2023/01/26 08:51:43;;;;;;;12.52;6.47;;;2.20;99.90;;;;;;5054017;28;20032;-75
2023/01/26 08:54:09;;;;;;;18.52;9.63;;;2.20;99.90;;;;;;5054492;28;20097;-74
2023/01/26 08:56:35;;;;;;;20.70;9.70;;;2.30;99.90;;;;;;5053930;28;20490;-74
2023/01/26 08:59:01;;;;;;;21.45;11.38;;;2.30;99.90;;;;;;5053696;28;20025;-74
2023/01/26 09:01:27;;;;;;;20.35;10.55;;;2.30;99.90;;;;;;5053016;28;20033;-74
2023/01/26 09:03:55;;;;;;;17.52;9.05;;;2.40;99.90;;;;;;5054167;28;20126;-73
2023/01/26 09:06:21;;;;;;;21.00;11.07;;;2.30;99.90;;;;;;5053782;28;20111;-73
2023/01/26 09:08:47;;;;;;;15.48;7.43;;;2.40;99.90;;;;;;5053917;28;20032;-73
2023/01/26 09:11:13;;;;;;;16.27;7.15;;;2.30;99.90;;;;;;5054017;28;20033;-73
2023/01/26 09:13:39;;;;;;;16.73;8.40;;;2.40;99.90;;;;;;5053850;28;20025;-74
2023/01/26 09:16:07;;;;;;;15.50;7.80;;;2.40;99.90;;;;;;5053936;28;20067;-73
2023/01/26 09:18:33;;;;;;;22.45;11.18;;;2.50;99.90;;;;;;5054063;28;20037;-74
2023/01/26 09:21:07;;;;;;;14.60;7.28;;;2.50;99.90;;;;;;5053862;28;20476;-73
2023/01/26 09:23:34;;;;;;;20.35;9.18;;;2.60;99.90;;;;;;5053997;28;20029;-73
2023/01/26 09:26:00;;;;;;;14.00;7.80;;;2.60;99.90;;;;;;5042309;28;20029;-73
2023/01/26 09:28:26;;;;;;;13.82;7.00;;;2.60;99.90;;;;;;5053838;28;20032;-74
2023/01/26 09:30:52;;;;;;;12.82;6.63;;;2.60;99.90;;;;;;5053776;28;20025;-74
2023/01/26 09:33:20;;;;;;;11.93;6.75;;;2.60;99.90;;;;;;5060047;28;20037;-73
2023/01/26 09:35:46;;;;;;;12.55;6.55;;;2.60;99.90;;;;;;5053126;28;20017;-73
2023/01/26 09:38:12;;;;;;;14.07;7.45;;;2.60;99.90;;;;;;5053743;28;20098;-73
2023/01/26 09:40:38;;;;;;;17.83;8.80;;;2.60;99.90;;;;;;5039886;28;20059;-74
2023/01/26 09:43:11;;;;;;;14.02;7.30;;;2.60;99.90;;;;;;5053892;28;20056;-74
2023/01/26 09:45:51;;;;;;;28.17;11.52;;;2.70;99.90;;;;;;5052960;28;20056;-71
2023/01/26 09:48:21;;;;;;;22.08;10.80;;;2.70;99.90;;;;;;5047309;28;20074;-73
2023/01/26 09:51:02;;;;;;;17.52;8.20;;;2.70;99.90;;;;;;5041801;28;20055;-73
2023/01/26 09:53:33;;;;;;;21.48;10.48;;;2.60;99.90;;;;;;5053246;28;20036;-75
2023/01/26 09:55:59;;;;;;;13.75;6.72;;;2.60;99.90;;;;;;5053096;28;20063;-73
2023/01/26 09:58:39;;;;;;;19.10;8.27;;;2.70;99.90;;;;;;5053110;28;20025;-74
2023/01/26 10:01:12;;;;;;;15.00;8.02;;;2.60;99.90;;;;;;5049665;28;20538;-72
2023/01/26 10:03:37;;;;;;;;;;;2.70;99.90;;;;;;5065557;28;20392;-71
2023/01/26 10:06:40;;;;;;;19.13;7.90;;;2.70;99.90;;;;;;5052036;28;19908;-74
2023/01/26 10:09:24;;;;;;;22.88;11.07;;;2.80;99.90;;;;;;4990887;28;20069;-73
2023/01/26 10:12:06;;;;;;;21.45;11.13;;;2.80;99.90;;;;;;4990632;28;20042;-73
2023/01/26 10:14:50;;;;;;;23.05;12.15;;;2.70;99.90;;;;;;4991820;28;20085;-73
2023/01/26 10:17:33;;;;;;;17.48;8.18;;;2.80;99.90;;;;;;4991546;28;20462;-74
2023/01/26 10:20:14;;;;;;;19.83;10.63;;;2.80;99.90;;;;;;4980760;28;20493;-74
2023/01/26 10:22:46;;;;;;;17.80;8.90;;;2.80;99.90;;;;;;4991567;28;20519;-73
2023/01/26 10:25:37;;;;;;;14.45;7.03;;;2.70;99.90;;;;;;4991564;28;20494;-74
2023/01/26 10:28:29;;;;;;;16.80;7.88;;;2.80;99.90;;;;;;4991525;28;20033;-73
2023/01/26 10:30:56;;;;;;;18.65;9.68;;;2.80;99.90;;;;;;4990215;28;20493;-73
2023/01/26 10:33:31;;;;;;;14.05;8.13;;;2.80;99.90;;;;;;4991671;28;20030;-74
2023/01/26 10:35:58;;;;;;;20.10;9.80;;;2.90;99.90;;;;;;4985766;28;20085;-74
2023/01/26 10:38:32;;;;;;;18.05;10.80;;;2.90;99.90;;;;;;4984435;28;20125;-73
2023/01/26 10:41:25;;;;;;;24.75;13.52;;;2.90;99.90;;;;;;4991045;28;20038;-74
2023/01/26 10:43:57;;;;;;;22.08;13.10;;;3.00;99.90;;;;;;5036232;28;20045;-73
2023/01/26 10:46:24;;;;;;;25.45;13.18;;;2.70;99.90;;;;;;5047317;28;20068;-73
2023/01/26 10:48:52;;;;;;;21.55;12.00;;;2.70;99.90;;;;;;5052913;28;20025;-74
2023/01/26 10:51:26;;;;;;;22.10;15.02;;;2.60;99.90;;;;;;5052543;28;20056;-74
2023/01/26 10:54:24;;;;;;;23.58;11.55;;;2.60;99.90;;;;;;5050756;28;20029;-73
2023/01/26 10:56:57;;;;;;;21.50;11.55;;;2.70;99.90;;;;;;5052354;28;20033;-73
2023/01/26 10:59:23;;;;;;;;;;;2.80;99.90;;;;;;5053054;28;20080;-73
2023/01/26 11:01:59;;;;;;;17.30;9.63;;;2.70;99.90;;;;;;5052598;28;20391;-73
2023/01/26 11:04:25;;;;;;;19.85;10.32;;;2.60;99.90;;;;;;5052099;28;20017;-73
2023/01/26 11:06:51;;;;;;;17.70;8.65;;;2.50;99.90;;;;;;5052215;28;20028;-73
2023/01/26 11:09:25;;;;;;;18.38;9.93;;;2.50;99.90;;;;;;5051941;28;20035;-74
2023/01/26 11:12:03;;;;;;;21.35;13.05;;;2.50;99.90;;;;;;5052037;28;20033;-74
2023/01/26 11:14:31;;;;;;;25.38;12.98;;;2.50;99.90;;;;;;5052037;28;20036;-74
2023/01/26 11:17:00;;;;;;;19.85;11.00;;;2.50;99.90;;;;;;5051719;28;20116;-74
2023/01/26 11:19:41;;;;;;;31.90;15.63;;;2.30;99.90;;;;;;5052094;28;20041;-74
2023/01/26 11:22:14;;;;;;;23.38;12.18;;;2.40;99.90;;;;;;5052295;28;20135;-74
2023/01/26 11:24:57;;;;;;;25.35;13.85;;;2.40;99.90;;;;;;5041667;28;20059;-73
2023/01/26 11:27:34;;;;;;;;;;;2.60;99.90;;;;;;5056452;28;20082;-73
2023/01/26 11:30:22;;;;;;;23.15;11.88;;;2.60;99.90;;;;;;5056053;28;19909;-73
2023/01/26 11:32:58;;;;;;;19.67;10.25;;;2.60;99.90;;;;;;5000567;28;20520;-73
2023/01/26 11:35:46;;;;;;;22.58;11.70;;;2.60;99.90;;;;;;5005486;28;20046;-73
2023/01/26 11:38:24;;;;;;;21.77;11.05;;;2.60;99.90;;;;;;4994686;28;20054;-73
2023/01/26 11:41:36;;;;;;;18.33;10.40;;;2.60;99.90;;;;;;4995396;28;20053;-73
2023/01/26 11:44:29;;;;;;;19.98;11.02;;;2.50;99.90;;;;;;4936396;29;20039;-73
2023/01/26 11:47:35;;;;;;;20.38;11.25;;;2.60;99.90;;;;;;4930709;29;20032;-73
2023/01/26 11:50:31;;;;;;;22.98;11.73;;;2.70;99.90;;;;;;4842611;29;20049;-73
2023/01/26 11:53:30;;;;;;;25.27;13.20;;;2.70;99.90;;;;;;4842807;29;20089;-73
2023/01/26 11:56:08;;;;;;;20.35;10.80;;;2.80;99.90;;;;;;4842229;29;20037;-73
2023/01/26 11:58:46;;;;;;;21.38;9.23;;;2.70;99.90;;;;;;4842533;29;20038;-72
2023/01/26 12:01:27;;;;;;;20.88;11.60;;;2.70;99.90;;;;;;4842599;29;20045;-73
2023/01/26 12:03:55;;;;;;;21.08;12.35;;;2.60;99.90;;;;;;4842835;29;20053;-73
2023/01/26 12:06:44;;;;;;;21.25;11.82;;;2.70;99.90;;;;;;4842138;29;20061;-73
2023/01/26 12:09:20;;;;;;;22.88;12.73;;;2.60;99.90;;;;;;4858676;29;20484;-73
2023/01/26 12:11:57;;;;;;;22.08;12.98;;;2.70;99.90;;;;;;4916517;29;20029;-73
2023/01/26 12:14:48;;;;;;;20.13;10.98;;;2.50;99.90;;;;;;4916766;29;20396;-72
2023/01/26 12:17:36;;;;;;;20.23;10.57;;;2.50;99.90;;;;;;4916812;29;20044;-72
2023/01/26 12:20:21;;;;;;;24.23;13.27;;;2.60;99.90;;;;;;4950568;28;20058;-72
2023/01/26 12:23:37;;;;;;;20.17;11.25;;;2.70;99.90;;;;;;4972676;28;20034;-72
2023/01/26 12:26:19;;;;;;;26.92;14.93;;;2.60;99.90;;;;;;4952274;28;20117;-72
2023/01/26 12:28:50;;;;;;;21.38;11.73;;;2.70;99.90;;;;;;4993556;28;20435;-71
2023/01/26 12:31:47;;;;;;;16.80;10.32;;;2.70;99.90;;;;;;4993597;28;20140;-72
2023/01/26 12:34:13;;;;;;;21.35;9.02;;;2.70;99.90;;;;;;4992062;28;20030;-72
2023/01/26 12:36:58;;;;;;;17.80;9.95;;;2.80;99.90;;;;;;4992602;28;20054;-71
2023/01/26 12:39:50;;;;;;;16.95;8.77;;;2.60;99.90;;;;;;4981721;28;20112;-72
2023/01/26 12:42:38;;;;;;;17.95;10.10;;;2.80;99.90;;;;;;4991194;28;20042;-72
2023/01/26 12:45:11;;;;;;;18.40;10.45;;;2.80;99.90;;;;;;4998479;28;20030;-73
2023/01/26 12:48:10;;;;;;;16.70;8.15;;;2.70;99.90;;;;;;4991624;28;20438;-74
2023/01/26 12:50:48;;;;;;;19.23;9.05;;;2.70;99.90;;;;;;4992882;28;20072;-74
2023/01/26 12:53:38;;;;;;;14.90;8.30;;;2.70;99.90;;;;;;4992730;28;20161;-72
2023/01/26 12:56:41;;;;;;;15.35;7.90;;;2.70;99.90;;;;;;4998854;28;20104;-75
2023/01/26 12:59:31;;;;;;;18.70;9.70;;;2.80;99.90;;;;;;4992447;28;20054;-75
2023/01/26 13:01:57;;;;;;;17.40;9.65;;;2.70;99.90;;;;;;5010512;28;20047;-73
2023/01/26 13:04:26;;;;;;;22.23;10.82;;;2.70;99.90;;;;;;5053318;28;20024;-73
2023/01/26 13:07:23;;;;;;;19.10;10.43;;;2.70;99.90;;;;;;5041935;28;20404;-74
2023/01/26 13:10:13;;;;;;;19.52;10.15;;;2.70;99.90;;;;;;5054040;28;20126;-73
2023/01/26 13:12:59;;;;;;;18.63;11.00;;;2.70;99.90;;;;;;5054068;28;20033;-74
2023/01/26 13:15:31;;;;;;;19.45;10.25;;;2.60;99.90;;;;;;5048687;28;20093;-73
2023/01/26 13:17:59;;;;;;;25.63;14.05;;;2.50;99.90;;;;;;5053430;28;20044;-74
2023/01/26 13:20:44;;;;;;;23.08;13.30;;;2.60;99.90;;;;;;5053811;28;20052;-74
2023/01/26 13:23:38;;;;;;;19.58;10.00;;;2.60;99.90;;;;;;5041926;28;20499;-74
2023/01/26 13:26:41;;;;;;;17.00;9.18;;;2.60;99.90;;;;;;5053795;28;20029;-74
2023/01/26 13:29:26;;;;;;;13.45;8.20;;;2.30;99.90;;;;;;5049268;28;20063;-74
2023/01/26 13:32:01;;;;;;;25.40;14.45;;;2.30;99.90;;;;;;5050784;28;20111;-74
2023/01/26 13:34:33;;;;;;;20.95;10.63;;;2.30;99.90;;;;;;5060599;28;20078;-73
2023/01/26 13:37:24;;;;;;;17.42;10.38;;;2.20;99.90;;;;;;5053289;28;20116;-73
2023/01/26 13:39:57;;;;;;;21.00;11.95;;;2.00;99.90;;;;;;4982372;28;20579;-74
2023/01/26 13:42:28;;;;;;;15.27;8.10;;;2.00;99.90;;;;;;4987753;28;20069;-73
2023/01/26 13:45:01;;;;;;;16.77;9.55;;;2.00;99.90;;;;;;4994118;28;20182;-73
2023/01/26 13:47:39;;;;;;;39.25;20.60;;;1.80;99.90;;;;;;4997662;28;20125;-74
2023/01/26 13:50:23;;;;;;;26.02;12.45;;;1.90;99.90;;;;;;4994956;28;20452;-73
2023/01/26 13:52:50;;;;;;;20.70;10.80;;;1.90;99.90;;;;;;4988252;28;20037;-74